createdAt,value
2023-03-11T00:00:25.427Z,95673.72
2023-03-11T00:02:55.636Z,95667.84
2023-03-11T00:05:27.527Z,95677.19
2023-03-11T00:07:56.434Z,95680.50
2023-03-11T00:10:29.873Z,95672.22
2023-03-11T00:12:58.889Z,95670.41
2023-03-11T00:15:27.125Z,95681.13
2023-03-11T00:17:55.725Z,95677.41
2023-03-11T00:20:28.503Z,95676.66
2023-03-11T00:22:57.541Z,95676.13
2023-03-11T00:25:28.886Z,95673.75
2023-03-11T00:27:57.242Z,95666.38
2023-03-11T00:30:26.045Z,95662.78
2023-03-11T00:32:57.092Z,95657.47
2023-03-11T00:35:29.160Z,95659.19
2023-03-11T00:37:59.495Z,95646.28
2023-03-11T00:40:30.731Z,95641.28
2023-03-11T00:42:59.233Z,95646.66
2023-03-11T00:45:28.334Z,95637.63
2023-03-11T00:47:57.332Z,95638.50
2023-03-11T00:50:29.673Z,95640.84
2023-03-11T00:52:58.718Z,95644.59
2023-03-11T00:55:29.254Z,95643.97
2023-03-11T00:58:00.213Z,95647.47
2023-03-11T01:00:33.482Z,95639.94
2023-03-11T01:03:04.352Z,95647.81
2023-03-11T01:05:35.546Z,95645.88
2023-03-11T01:08:04.954Z,95644.81
2023-03-11T01:10:34.579Z,95639.00
2023-03-11T01:13:03.127Z,95637.28
2023-03-11T01:15:33.384Z,95639.66
2023-03-11T01:18:01.895Z,95645.63
2023-03-11T01:20:30.593Z,95635.34
2023-03-11T01:23:00.131Z,95629.06
2023-03-11T01:25:29.719Z,95629.13
2023-03-11T01:27:59.463Z,95620.88
2023-03-11T01:30:29.527Z,95619.69
2023-03-11T01:32:58.605Z,95619.31
2023-03-11T01:35:29.362Z,95614.69
2023-03-11T01:37:59.421Z,95617.13
2023-03-11T01:40:32.210Z,95627.19
2023-03-11T01:43:06.849Z,95619.66
2023-03-11T01:45:43.279Z,95637.28
2023-03-11T01:48:13.446Z,95635.13
2023-03-11T01:50:45.277Z,95626.72
2023-03-11T01:53:16.743Z,95632.84
2023-03-11T01:55:46.671Z,95629.94
2023-03-11T01:58:20.034Z,95616.28
2023-03-11T02:00:48.649Z,95621.16
2023-03-11T02:03:23.223Z,95615.56
2023-03-11T02:05:53.998Z,95625.59
2023-03-11T02:08:23.858Z,95625.84
2023-03-11T02:10:54.377Z,95635.84
2023-03-11T02:13:22.608Z,95642.84
2023-03-11T02:15:51.111Z,95632.56
2023-03-11T02:18:21.243Z,95632.69
2023-03-11T02:20:58.381Z,95638.66
2023-03-11T02:23:35.094Z,95637.34
2023-03-11T02:26:09.493Z,95626.91
2023-03-11T02:28:41.554Z,95638.00
2023-03-11T02:31:09.925Z,95628.78
2023-03-11T02:33:38.548Z,95642.78
2023-03-11T02:36:07.670Z,95641.84
2023-03-11T02:38:36.748Z,95640.81
2023-03-11T02:41:07.171Z,95659.03
2023-03-11T02:43:38.657Z,95662.03
2023-03-11T02:46:11.956Z,95660.06
2023-03-11T02:48:40.368Z,95650.50
2023-03-11T02:51:08.852Z,95650.72
2023-03-11T02:53:43.786Z,95650.09
2023-03-11T02:56:12.101Z,95642.41
2023-03-11T02:58:40.164Z,95648.00
2023-03-11T03:01:11.965Z,95658.31
2023-03-11T03:03:42.612Z,95643.28
2023-03-11T03:06:11.529Z,95643.00
2023-03-11T03:08:39.638Z,95647.47
2023-03-11T03:11:08.116Z,95642.84
2023-03-11T03:13:36.425Z,95643.28
2023-03-11T03:16:05.004Z,95648.94
2023-03-11T03:18:35.282Z,95648.91
2023-03-11T03:21:03.413Z,95647.38
2023-03-11T03:23:35.185Z,95636.38
2023-03-11T03:26:03.486Z,95669.56
2023-03-11T03:28:32.583Z,95665.09
2023-03-11T03:31:05.694Z,95643.56
2023-03-11T03:33:35.466Z,95669.97
2023-03-11T03:36:08.353Z,95663.66
2023-03-11T03:38:41.215Z,95652.25
2023-03-11T03:41:10.201Z,95657.09
2023-03-11T03:43:41.423Z,95662.97
2023-03-11T03:46:10.228Z,95641.53
2023-03-11T03:48:46.699Z,95646.22
2023-03-11T03:51:15.655Z,95641.09
2023-03-11T03:53:55.975Z,95639.97
2023-03-11T03:56:26.127Z,95634.56
2023-03-11T03:58:54.753Z,95647.56
2023-03-11T04:01:25.248Z,95643.75
2023-03-11T04:03:54.928Z,95634.00
2023-03-11T04:06:25.106Z,95632.81
2023-03-11T04:09:00.610Z,95683.50
2023-03-11T04:11:33.315Z,95635.13
2023-03-11T04:14:03.257Z,95628.31
2023-03-11T04:16:33.625Z,95647.41
2023-03-11T04:19:08.110Z,95636.22
2023-03-11T04:21:37.140Z,95639.97
2023-03-11T04:24:05.962Z,95629.28
2023-03-11T04:26:37.056Z,95622.06
2023-03-11T04:29:07.466Z,95589.28
2023-03-11T04:31:41.096Z,95667.28
2023-03-11T04:34:11.575Z,95606.34
2023-03-11T04:36:40.970Z,95625.34
2023-03-11T04:39:10.637Z,95626.31
2023-03-11T04:41:43.041Z,95628.38
2023-03-11T04:44:14.602Z,95629.19
2023-03-11T04:46:43.001Z,95618.75
2023-03-11T04:49:13.165Z,95643.03
2023-03-11T04:51:41.582Z,95624.75
2023-03-11T04:54:10.091Z,95615.00
2023-03-11T04:56:38.246Z,95624.38
2023-03-11T04:59:07.784Z,95604.59
2023-03-11T05:01:38.294Z,95635.50
2023-03-11T05:04:09.472Z,95702.56
2023-03-11T05:06:39.041Z,95639.22
2023-03-11T05:09:07.906Z,95639.69
2023-03-11T05:11:38.966Z,95667.31
2023-03-11T05:14:07.333Z,95638.19
2023-03-11T05:16:35.812Z,95641.22
2023-03-11T05:19:25.939Z,95664.91
2023-03-11T05:21:55.729Z,95672.44
2023-03-11T05:24:26.705Z,95650.91
2023-03-11T05:26:55.681Z,95639.31
2023-03-11T05:29:24.977Z,95644.94
2023-03-11T05:31:54.844Z,95671.69
2023-03-11T05:34:23.445Z,95697.66
2023-03-11T05:36:51.840Z,95664.47
2023-03-11T05:39:21.464Z,95664.38
2023-03-11T05:41:49.669Z,95652.16
2023-03-11T05:44:17.780Z,95662.38
2023-03-11T05:46:45.899Z,95699.88
2023-03-11T05:49:14.028Z,95669.91
2023-03-11T05:51:42.512Z,95676.19
2023-03-11T05:54:15.210Z,95677.66
2023-03-11T05:56:49.018Z,95666.31
2023-03-11T05:59:18.750Z,95675.53
2023-03-11T06:01:53.489Z,95681.53
2023-03-11T06:04:22.688Z,95714.56
2023-03-11T06:06:50.992Z,95679.28
2023-03-11T06:09:21.696Z,95688.13
2023-03-11T06:11:51.482Z,95739.34
2023-03-11T06:14:21.668Z,95741.09
2023-03-11T06:16:51.869Z,95725.97
2023-03-11T06:19:21.669Z,95719.19
2023-03-11T06:21:52.186Z,95736.16
2023-03-11T06:24:20.419Z,95725.72
2023-03-11T06:26:53.817Z,95722.75
2023-03-11T06:29:26.670Z,95741.59
2023-03-11T06:31:55.918Z,95728.09
2023-03-11T06:34:24.796Z,95736.16
2023-03-11T06:36:54.898Z,95732.94
2023-03-11T06:39:23.171Z,95757.97
2023-03-11T06:41:54.217Z,95741.09
2023-03-11T06:44:22.368Z,95747.81
2023-03-11T06:46:50.455Z,95756.25
2023-03-11T06:49:19.332Z,95764.84
2023-03-11T06:51:47.400Z,95802.75
2023-03-11T06:54:16.512Z,95795.56
2023-03-11T06:56:44.841Z,95798.84
2023-03-11T06:59:15.857Z,95790.19
2023-03-11T07:01:43.937Z,95804.63
2023-03-11T07:04:12.382Z,95794.00
2023-03-11T07:06:43.571Z,95780.09
2023-03-11T07:09:19.306Z,95819.34
2023-03-11T07:11:47.734Z,95823.66
2023-03-11T07:14:23.300Z,95836.00
2023-03-11T07:16:55.201Z,95812.41
2023-03-11T07:19:29.571Z,95830.34
2023-03-11T07:21:57.695Z,95837.34
2023-03-11T07:24:25.810Z,95823.16
2023-03-11T07:26:53.912Z,95863.66
2023-03-11T07:29:23.338Z,95850.13
2023-03-11T07:31:51.498Z,95842.81
2023-03-11T07:34:19.655Z,95858.56
2023-03-11T07:36:47.817Z,95886.03
2023-03-11T07:39:18.027Z,95880.94
2023-03-11T07:41:46.836Z,95844.78
2023-03-11T07:44:16.871Z,95830.69
2023-03-11T07:46:47.078Z,95848.16
2023-03-11T07:49:15.258Z,95868.16
2023-03-11T07:51:44.088Z,95891.81
2023-03-11T07:54:13.224Z,95867.00
2023-03-11T07:56:41.361Z,95921.88
2023-03-11T07:59:09.571Z,95891.25
2023-03-11T08:01:40.681Z,95898.75
2023-03-11T08:04:14.530Z,95920.09
2023-03-11T08:06:43.870Z,95883.47
2023-03-11T08:09:12.206Z,95871.47
2023-03-11T08:11:40.797Z,95878.50
2023-03-11T08:14:09.050Z,95897.72
2023-03-11T08:16:37.282Z,95893.75
2023-03-11T08:19:05.352Z,95892.25
2023-03-11T08:21:34.876Z,95904.13
2023-03-11T08:24:06.555Z,95897.28
2023-03-11T08:26:35.028Z,95921.28
2023-03-11T08:29:03.075Z,95911.78
2023-03-11T08:31:33.726Z,95892.06
2023-03-11T08:34:03.724Z,95915.38
2023-03-11T08:36:32.744Z,95906.19
2023-03-11T08:39:03.517Z,95956.34
2023-03-11T08:41:31.858Z,95887.41
2023-03-11T08:44:00.126Z,95930.44
2023-03-11T08:46:30.760Z,95904.13
2023-03-11T08:49:01.201Z,95935.66
2023-03-11T08:51:30.530Z,95922.97
2023-03-11T08:53:58.618Z,95932.47
2023-03-11T08:56:29.053Z,95959.00
2023-03-11T08:58:57.405Z,95939.25
2023-03-11T09:01:25.736Z,95912.16
2023-03-11T09:03:53.946Z,95914.91
2023-03-11T09:06:22.649Z,95935.06
2023-03-11T09:08:51.166Z,95931.19
2023-03-11T09:11:22.079Z,95912.47
2023-03-11T09:13:51.942Z,95947.56
2023-03-11T09:16:25.577Z,95943.19
2023-03-11T09:18:53.650Z,95963.28
2023-03-11T09:21:21.809Z,95957.06
2023-03-11T09:23:50.072Z,95989.25
2023-03-11T09:28:49.301Z,95980.44
2023-03-11T09:31:19.793Z,95946.56
2023-03-11T09:33:48.523Z,95971.28
2023-03-11T09:36:18.679Z,95959.13
2023-03-11T09:38:47.903Z,95993.91
2023-03-11T09:41:27.240Z,96021.69
2023-03-11T09:44:06.409Z,95993.88
2023-03-11T09:47:07.679Z,95998.53
2023-03-11T09:49:48.639Z,95998.84
2023-03-11T09:52:20.374Z,96000.28
2023-03-11T09:54:52.292Z,96020.94
2023-03-11T09:57:24.313Z,95990.94
2023-03-11T09:59:52.946Z,96011.84
2023-03-11T10:02:26.749Z,96033.63
2023-03-11T10:04:59.962Z,96030.81
2023-03-11T10:07:34.990Z,96039.00
2023-03-11T10:10:03.863Z,96034.31
2023-03-11T10:12:46.064Z,96051.31
2023-03-11T10:15:20.930Z,96031.25
2023-03-11T10:18:13.351Z,96031.97
2023-03-11T10:20:52.207Z,96038.88
2023-03-11T10:23:27.293Z,96047.81
2023-03-11T10:26:04.151Z,96114.28
2023-03-11T10:28:36.838Z,96062.78
2023-03-11T10:31:19.089Z,96046.97
2023-03-11T10:33:51.968Z,96047.56
2023-03-11T10:36:24.616Z,96058.09
2023-03-11T10:38:55.049Z,96076.09
2023-03-11T10:41:31.240Z,96126.34
2023-03-11T10:44:05.318Z,96084.56
2023-03-11T10:46:33.438Z,96089.31
2023-03-11T10:49:02.869Z,96127.25
2023-03-11T10:51:35.755Z,96072.75
2023-03-11T10:54:04.994Z,96109.78
2023-03-11T10:56:36.030Z,96105.19
2023-03-11T10:59:06.329Z,96156.31
2023-03-11T11:01:34.700Z,96115.03
2023-03-11T11:04:04.698Z,96096.19
2023-03-11T11:06:34.512Z,96136.19
2023-03-11T11:09:11.867Z,96106.94
2023-03-11T11:11:40.293Z,96115.28
2023-03-11T11:14:09.528Z,96135.50
2023-03-11T11:16:38.114Z,96125.75
2023-03-11T11:19:11.911Z,96128.84
2023-03-11T11:21:43.386Z,96122.56
2023-03-11T11:24:25.763Z,96145.88
2023-03-11T11:27:08.401Z,96158.47
2023-03-11T11:29:36.750Z,96157.59
2023-03-11T11:32:21.632Z,96153.47
2023-03-11T11:35:00.676Z,96150.69
2023-03-11T11:37:32.444Z,96163.59
2023-03-11T11:40:11.203Z,96196.47
2023-03-11T11:42:41.618Z,96182.72
2023-03-11T11:45:17.436Z,96182.66
2023-03-11T11:47:49.899Z,96180.78
2023-03-11T11:50:27.406Z,96179.44
2023-03-11T11:53:04.191Z,96182.41
2023-03-11T11:55:34.250Z,96212.69
2023-03-11T11:58:02.385Z,96206.91
2023-03-11T12:00:39.767Z,96212.28
2023-03-11T12:03:25.596Z,96220.47
2023-03-11T12:05:59.073Z,96207.09
2023-03-11T12:08:35.179Z,96225.69
2023-03-11T12:11:05.769Z,96263.63
2023-03-11T12:14:00.290Z,96252.50
2023-03-11T12:16:39.637Z,96237.22
2023-03-11T12:19:19.151Z,96242.44
2023-03-11T12:22:17.553Z,96262.28
2023-03-11T12:25:09.713Z,96258.84
2023-03-11T12:27:45.595Z,96287.19
2023-03-11T12:30:18.344Z,96328.88
2023-03-11T12:32:50.354Z,96323.47
2023-03-11T12:35:26.430Z,96345.59
2023-03-11T12:38:06.940Z,96381.50
2023-03-11T12:41:00.030Z,96352.56
2023-03-11T12:43:44.347Z,96388.97
2023-03-11T12:46:14.378Z,96380.78
2023-03-11T12:48:46.738Z,96404.09
2023-03-11T12:51:41.775Z,96409.25
2023-03-11T12:54:31.031Z,96387.19
2023-03-11T12:57:00.640Z,96412.84
2023-03-11T13:00:07.829Z,96425.00
2023-03-11T13:02:58.014Z,96424.25
2023-03-11T13:05:32.443Z,96421.16
2023-03-11T13:08:05.190Z,96424.06
2023-03-11T13:10:40.706Z,96431.91
2023-03-11T13:13:38.053Z,96454.00
2023-03-11T13:16:38.654Z,96519.66
2023-03-11T13:19:43.403Z,96503.91
2023-03-11T13:22:44.269Z,96472.94
2023-03-11T13:25:32.946Z,96554.31
2023-03-11T13:28:29.213Z,96510.41
2023-03-11T13:31:06.450Z,96562.13
2023-03-11T13:33:46.525Z,96523.53
2023-03-11T13:36:31.171Z,96534.50
2023-03-11T13:39:26.928Z,96537.38
2023-03-11T13:41:56.299Z,96510.88
2023-03-11T13:44:30.705Z,96569.81
2023-03-11T13:47:04.994Z,96541.25
2023-03-11T13:49:39.492Z,96545.66
2023-03-11T13:52:11.461Z,96564.03
2023-03-11T13:54:44.869Z,96604.47
2023-03-11T13:57:26.706Z,96596.91
2023-03-11T13:59:57.593Z,96551.19
2023-03-11T14:02:27.947Z,96579.81
2023-03-11T14:04:59.698Z,96618.84
2023-03-11T14:07:30.926Z,96604.06
2023-03-11T14:10:21.261Z,96609.19
2023-03-11T14:12:50.031Z,96642.50
2023-03-11T14:15:24.429Z,96633.00
2023-03-11T14:17:54.264Z,96612.66
2023-03-11T14:20:25.561Z,96645.06
2023-03-11T14:22:56.104Z,96648.47
2023-03-11T14:25:27.324Z,96675.84
2023-03-11T14:27:58.144Z,96708.13
2023-03-11T14:30:29.724Z,96701.72
2023-03-11T14:33:00.943Z,96691.38
2023-03-11T14:35:29.553Z,96668.44
2023-03-11T14:37:59.118Z,96718.06
2023-03-11T14:40:30.807Z,96699.69
2023-03-11T14:43:02.408Z,96736.16
2023-03-11T14:45:34.636Z,96725.00
2023-03-11T14:48:08.291Z,96716.56
2023-03-11T14:50:36.987Z,96728.72
2023-03-11T14:53:10.072Z,96766.94
2023-03-11T14:55:43.219Z,96723.75
2023-03-11T14:58:16.453Z,96734.22
2023-03-11T15:00:50.532Z,96758.97
2023-03-11T15:03:24.554Z,96759.28
2023-03-11T15:05:56.362Z,96760.94
2023-03-11T15:08:28.243Z,96759.25
2023-03-11T15:11:09.097Z,96779.19
2023-03-11T15:13:38.594Z,96773.75
2023-03-11T15:16:22.761Z,96790.06
2023-03-11T15:18:51.003Z,96813.41
2023-03-11T15:21:20.975Z,96779.31
2023-03-11T15:23:50.957Z,96791.88
2023-03-11T15:26:22.624Z,96806.47
2023-03-11T15:28:59.393Z,96810.97
2023-03-11T15:31:35.552Z,96808.09
2023-03-11T15:34:27.267Z,96876.00
2023-03-11T15:37:21.368Z,96814.50
2023-03-11T15:39:53.215Z,96835.69
2023-03-11T15:42:25.740Z,96845.34
2023-03-11T15:45:05.824Z,96841.22
2023-03-11T15:47:36.238Z,96850.19
2023-03-11T15:50:24.163Z,96844.19
2023-03-11T15:52:54.427Z,96860.75
2023-03-11T15:55:22.908Z,96851.16
2023-03-11T15:57:55.141Z,96866.69
2023-03-11T16:00:24.907Z,96895.41
2023-03-11T16:02:54.857Z,96856.84
2023-03-11T16:05:25.112Z,96867.13
2023-03-11T16:07:53.257Z,96876.72
2023-03-11T16:10:22.844Z,96867.22
2023-03-11T16:12:51.051Z,96876.19
2023-03-11T16:15:28.515Z,96887.06
2023-03-11T16:17:59.505Z,96891.50
2023-03-11T16:20:30.104Z,96888.22
2023-03-11T16:22:59.766Z,96907.38
2023-03-11T16:25:30.375Z,96899.72
2023-03-11T16:27:59.005Z,96915.88
2023-03-11T16:30:28.591Z,96907.94
2023-03-11T16:32:58.440Z,96913.41
2023-03-11T16:35:27.526Z,96919.81
2023-03-11T16:37:55.730Z,96931.84
2023-03-11T16:40:27.318Z,96929.88
2023-03-11T16:42:58.075Z,96932.34
2023-03-11T16:45:26.353Z,96943.53
2023-03-11T16:47:54.468Z,96932.94
2023-03-11T16:50:24.998Z,96943.78
2023-03-11T16:52:53.569Z,96961.41
2023-03-11T16:55:22.207Z,96960.28
2023-03-11T16:57:50.325Z,96979.00
2023-03-11T17:00:19.302Z,96965.81
2023-03-11T17:02:47.741Z,96970.84
2023-03-11T17:05:15.858Z,96984.19
2023-03-11T17:07:45.402Z,96988.44
2023-03-11T17:10:13.915Z,96995.06
2023-03-11T17:12:42.032Z,97014.06
2023-03-11T17:15:10.619Z,97017.38
2023-03-11T17:17:38.679Z,97016.50
2023-03-11T17:20:08.757Z,97028.25
2023-03-11T17:22:37.166Z,97044.66
2023-03-11T17:25:07.867Z,97038.53
2023-03-11T17:27:36.391Z,97035.50
2023-03-11T17:30:07.177Z,97038.78
2023-03-11T17:32:35.515Z,97054.31
2023-03-11T17:35:03.616Z,97057.66
2023-03-11T17:37:33.308Z,97069.16
2023-03-11T17:40:01.430Z,97100.44
2023-03-11T17:42:30.992Z,97083.28
2023-03-11T17:44:59.492Z,97086.91
2023-03-11T17:47:27.644Z,97114.88
2023-03-11T17:49:55.720Z,97136.22
2023-03-11T17:52:23.838Z,97138.94
2023-03-11T17:54:53.557Z,97112.34
2023-03-11T17:57:21.725Z,97133.72
2023-03-11T17:59:53.688Z,97170.22
2023-03-11T18:02:22.281Z,97122.28
2023-03-11T18:04:53.988Z,97155.97
2023-03-11T18:07:23.803Z,97140.50
2023-03-11T18:09:53.116Z,97179.94
2023-03-11T18:12:21.959Z,97145.13
2023-03-11T18:14:50.158Z,97157.75
2023-03-11T18:17:21.165Z,97161.41
2023-03-11T18:19:49.258Z,97171.13
2023-03-11T18:22:17.308Z,97173.13
2023-03-11T18:24:45.701Z,97162.66
2023-03-11T18:27:13.745Z,97202.78
2023-03-11T18:29:42.221Z,97213.22
2023-03-11T18:32:10.508Z,97238.03
2023-03-11T18:34:40.529Z,97207.63
2023-03-11T18:37:08.750Z,97208.41
2023-03-11T18:39:36.811Z,97229.97
2023-03-11T18:42:05.853Z,97219.16
2023-03-11T18:44:36.495Z,97255.75
2023-03-11T18:47:05.092Z,97245.31
2023-03-11T18:49:33.237Z,97227.69
2023-03-11T18:52:02.826Z,97251.81
2023-03-11T18:54:30.840Z,97245.63
2023-03-11T18:56:58.954Z,97255.84
2023-03-11T18:59:28.352Z,97240.88
2023-03-11T19:01:56.477Z,97253.56
2023-03-11T19:04:24.539Z,97255.25
2023-03-11T19:06:52.661Z,97249.75
2023-03-11T19:09:22.145Z,97245.06
2023-03-11T19:11:50.243Z,97247.34
2023-03-11T19:14:18.328Z,97251.44
2023-03-11T19:16:46.479Z,97260.78
2023-03-11T19:19:14.615Z,97257.09
2023-03-11T19:21:42.765Z,97264.78
2023-03-11T19:24:10.967Z,97310.56
2023-03-11T19:26:45.269Z,97311.03
2023-03-11T19:29:14.150Z,97366.50
2023-03-11T19:31:43.639Z,97336.41
2023-03-11T19:34:11.988Z,97328.66
2023-03-11T19:36:40.411Z,97320.97
2023-03-11T19:39:08.906Z,97329.38
2023-03-11T19:41:37.231Z,97328.50
2023-03-11T19:44:06.789Z,97323.63
2023-03-11T19:46:36.600Z,97317.53
2023-03-11T19:49:05.441Z,97323.81
2023-03-11T19:51:48.609Z,97339.25
2023-03-11T19:54:18.296Z,97346.47
2023-03-11T19:56:46.511Z,97337.91
2023-03-11T19:59:16.083Z,97358.53
2023-03-11T20:01:44.234Z,97358.44
2023-03-11T20:04:12.686Z,97352.03
2023-03-11T20:06:41.045Z,97359.53
2023-03-11T20:09:09.148Z,97379.41
2023-03-11T20:11:39.951Z,97372.56
2023-03-11T20:14:08.861Z,97391.88
2023-03-11T20:16:38.467Z,97374.94
2023-03-11T20:19:06.688Z,97371.28
2023-03-11T20:21:39.060Z,97379.53
2023-03-11T20:24:08.246Z,97381.13
2023-03-11T20:26:36.639Z,97368.25
2023-03-11T20:29:05.505Z,97393.78
2023-03-11T20:31:33.815Z,97382.84
2023-03-11T20:34:03.451Z,97388.75
2023-03-11T20:36:34.011Z,97373.81
2023-03-11T20:39:02.852Z,97383.91
2023-03-11T20:41:37.463Z,97389.41
2023-03-11T20:44:07.065Z,97395.94
2023-03-11T20:46:35.774Z,97387.81
2023-03-11T20:49:05.437Z,97412.56
2023-03-11T20:51:33.688Z,97397.50
2023-03-11T20:54:01.852Z,97402.66
2023-03-11T20:56:30.186Z,97401.16
2023-03-11T20:59:01.035Z,97393.31
2023-03-11T21:01:31.070Z,97405.31
2023-03-11T21:04:01.690Z,97409.19
2023-03-11T21:06:34.292Z,97404.75
2023-03-11T21:09:05.825Z,97406.28
2023-03-11T21:11:34.713Z,97410.72
2023-03-11T21:14:02.919Z,97398.84
2023-03-11T21:16:31.165Z,97409.25
2023-03-11T21:19:01.518Z,97406.97
2023-03-11T21:21:31.243Z,97412.56
2023-03-11T21:23:59.392Z,97403.03
2023-03-11T21:26:27.794Z,97403.50
2023-03-11T21:28:56.024Z,97415.28
2023-03-11T21:31:29.072Z,97406.84
2023-03-11T21:33:59.299Z,97415.13
2023-03-11T21:36:27.907Z,97426.13
2023-03-11T21:38:57.487Z,97414.84
2023-03-11T21:41:27.398Z,97413.78
2023-03-11T21:43:57.603Z,97423.34
2023-03-11T21:46:28.401Z,97422.59
2023-03-11T21:48:57.095Z,97433.84
2023-03-11T21:51:26.195Z,97423.19
2023-03-11T21:53:54.458Z,97429.41
2023-03-11T21:56:24.184Z,97430.00
2023-03-11T21:58:53.895Z,97447.97
2023-03-11T22:01:22.340Z,97437.97
2023-03-11T22:03:50.953Z,97448.47
2023-03-11T22:06:19.196Z,97446.81
2023-03-11T22:08:47.267Z,97453.22
2023-03-11T22:11:19.463Z,97447.91
2023-03-11T22:13:51.324Z,97457.56
2023-03-11T22:16:20.404Z,97451.41
2023-03-11T22:18:49.037Z,97457.28
2023-03-11T22:21:20.674Z,97452.91
2023-03-11T22:23:49.497Z,97452.38
2023-03-11T22:26:17.731Z,97447.91
2023-03-11T22:28:45.802Z,97463.44
2023-03-11T22:31:18.639Z,97466.09
2023-03-11T22:33:47.341Z,97468.56
2023-03-11T22:36:15.599Z,97469.59
2023-03-11T22:38:45.134Z,97471.19
2023-03-11T22:41:16.853Z,97472.19
2023-03-11T22:43:45.003Z,97468.81
2023-03-11T22:46:13.053Z,97476.28
2023-03-11T22:48:42.761Z,97478.25
2023-03-11T22:51:11.210Z,97489.06
2023-03-11T22:53:39.510Z,97482.19
2023-03-11T22:56:09.608Z,97485.28
2023-03-11T22:58:37.822Z,97473.38
2023-03-11T23:01:06.079Z,97479.94
2023-03-11T23:03:35.161Z,97491.97
2023-03-11T23:06:07.694Z,97480.44
2023-03-11T23:08:36.869Z,97484.28
2023-03-11T23:11:06.718Z,97493.28
2023-03-11T23:13:36.209Z,97490.84
2023-03-11T23:16:07.364Z,97495.56
2023-03-11T23:18:36.000Z,97490.69
2023-03-11T23:21:05.892Z,97488.13
2023-03-11T23:23:33.980Z,97499.06
2023-03-11T23:26:02.016Z,97499.13
2023-03-11T23:28:30.204Z,97503.03
2023-03-11T23:30:58.271Z,97506.88
2023-03-11T23:33:26.480Z,97504.25
2023-03-11T23:35:54.632Z,97511.31
2023-03-11T23:38:24.187Z,97510.50
2023-03-11T23:40:52.374Z,97512.19
2023-03-11T23:43:23.618Z,97504.59
2023-03-11T23:45:52.286Z,97515.03
2023-03-11T23:48:20.356Z,97510.09
2023-03-11T23:50:49.240Z,97521.00
2023-03-11T23:53:21.397Z,97506.19
2023-03-11T23:55:51.671Z,97506.50
2023-03-11T23:58:20.365Z,97509.78
